Burns Pinion Ridge Reserve, California Weather observations

Data are for 10 minute period ending at time listed.
 Day   Time   Solar   Ave.   Ave.  Ave.  Vector  Max.   Baro.   Total    
  of    of     Rad.   Air    Rel.  Wind   Wind   Wind  Press.  Precip.   
Year   Day            Temp.  Hum.  Speed  Dir.   Gust                    
2016   (PST)  Kw/m2    F      %     mph   deg.    mph    mb.     in.     
-------------------------------------------------------------------------
 206    7:10   0.38   79.3    20    9.8   219    19.7   876.9    0.00 
 206    7:20   0.41   79.1    22    9.1   212    16.8   876.9    0.00 
 206    7:30   0.45   79.3    23    9.8   210    20.8   876.9    0.00 
 206    7:40   0.48   78.2    28   12.0   214    18.6   877.0    0.00 
 206    7:50   0.51   76.7    38   12.5   211    20.4   877.1    0.00 
 206    8:00   0.54   76.1    47   12.7   206    21.3   877.1    0.00 
 206    8:10   0.58   75.7    54   13.4   208    22.9   877.2    0.00 
 206    8:20   0.62   75.3    58   13.0   208    23.2   877.3    0.00 
 206    8:30   0.58   76.8    56   11.5   178    19.0   877.4    0.00 
 206    8:40   0.61   77.1    56   11.3   189    20.8   877.5    0.00 
 206    8:50   0.71   76.7    56   11.9   181    25.4   877.5    0.00 
 206    9:00   0.71   76.8    58   12.2   196    23.5   877.6    0.00 
 206    9:10   0.76   76.7    59   12.3   191    22.5   877.7    0.00 
 206    9:20   0.73   76.7    60   11.0   197    23.5   877.8    0.00 
 206    9:30   0.80   77.6    58   10.4   196    21.6   877.8    0.00 
 206    9:40   0.83   77.6    59   11.2   199    24.3   877.8    0.00 
 206    9:50   0.84   77.4    60   11.2   193    23.6   877.8    0.00 
 206   10:00   0.86   78.9    57   12.1   200    22.9   877.8    0.00 
 206   10:10   0.87   78.5    59   12.1   190    25.9   877.8    0.00 
 206   10:20   0.88   79.0    55   10.5   195    23.2   877.8    0.00 
 206   10:30   0.91   80.7    53    7.4   191    22.6   877.8    0.00 
 206   10:40   0.92   80.4    54   10.8   205    20.4   877.7    0.00 
 206   10:50   0.91   80.3    55   10.4   212    21.8   877.7    0.00 
 206   11:00   0.93   80.7    53   11.5   203    22.2   877.6    0.00 
 206   11:10   0.94   81.5    51   10.2   212    21.5   877.5    0.00 
 206   11:20   0.96   82.7    49    9.2   198    19.4   877.3    0.00 
 206   11:30   0.94   82.0    49   10.9   210    20.4   877.2    0.00 
 206   11:40   0.95   82.4    48   10.0   194    21.2   877.2    0.00 
 206   11:50   0.97   84.1    44    9.8   218    18.9   877.0    0.00 
 206   12:00   0.96   83.7    46   10.1   210    20.9   877.0    0.00 
 206   12:10   0.94   84.5    44   10.6   205    22.0   876.9    0.00 
 206   12:20   0.96   84.8    42   11.1   191    19.8   876.8    0.00 
 206   12:30   0.96   85.5    41   11.0   209    18.7   876.8    0.00 
 206   12:40   0.95   86.4    40   10.1   200    20.7   876.8    0.00 
 206   12:50   0.94   86.1    40   11.5   206    20.6   876.7    0.00 
 206   13:00   0.94   86.8    38   10.5   212    20.1   876.6    0.00 
 206   13:10   0.93   86.9    38   11.3   210    19.3   876.5    0.00 
 206   13:20   0.91   88.4    35    9.6   208    16.7   876.4    0.00 
 206   13:30   0.90   89.6    32    7.8   191    18.5   876.3    0.00 
 206   13:40   0.89   90.1    29    8.9   201    18.4   876.2    0.00 
 206   13:50   0.88   92.3    26    7.8   198    22.9   876.0    0.00 
 206   14:00   0.85   91.7    24    9.2   211    17.2   876.0    0.00 
 206   14:10   0.83   92.2    23    8.4   204    18.0   875.9    0.00 
 206   14:20   0.81   92.2    22    9.5   214    20.7   875.8    0.00 
 206   14:30   0.78   92.4    21    7.8   221    17.0   875.7    0.00 
 206   14:40   0.76   92.5    20   10.4   209    18.7   875.6    0.00 
 206   14:50   0.73   94.5    19    7.7   202    18.7   875.5    0.00 
 206   15:00   0.71   93.5    18    7.8   205    18.7   875.5    0.00 
 206   15:10   0.68   94.0    15    9.2   205    19.1   875.4    0.00 
 206   15:20   0.65   95.0    15    7.7   159    18.7   875.2    0.00 
 206   15:30   0.62   95.3    14    7.0   194    19.3   875.1    0.00 
 206   15:40   0.59   94.2    15    9.2   166    20.5   875.0    0.00 
 206   15:50   0.56   94.3    15    8.8   202    19.3   875.0    0.00 
 206   16:00   0.53   94.7    15    8.3   157    21.9   874.9    0.00 
 206   16:10   0.49   94.4    15    7.9   186    20.5   874.8    0.00 
 206   16:20   0.46   94.8    15    6.8   170    14.5   874.8    0.00 
 206   16:30   0.42   94.9    15    5.7   178    13.7   874.7    0.00 
 206   16:40   0.39   94.3    16    6.4   167    17.1   874.6    0.00 
 206   16:50   0.35   94.3    16    6.0   183    15.1   874.6    0.00 
 206   17:00   0.32   93.6    17    6.8   172    14.6   874.6    0.00 
 206   17:10   0.28   92.6    18    6.8   172    16.2   874.6    0.00 
 206   17:20   0.25   91.8    18    6.9   190    16.1   874.7    0.00 
 206   17:30   0.22   90.6    19    8.2   202    18.6   874.7    0.00 
 206   17:40   0.18   89.9    20    7.0   200    18.9   874.8    0.00 
 206   17:50   0.15   88.7    22    8.8   194    20.2   875.0    0.00 
 206   18:00   0.12   88.6    22    6.6   197    14.1   875.1    0.00 
 206   18:10   0.09   87.4    24    7.5   193    17.4   875.1    0.00 
 206   18:20   0.07   86.5    24    8.0   198    21.3   875.2    0.00 
 206   18:30   0.05   85.5    25    7.3   195    18.4   875.4    0.00 
 206   18:40   0.02   84.4    26    7.2   199    15.1   875.4    0.00 
 206   18:50   0.01   83.6    26    5.9   195    14.1   875.5    0.00 
 206   19:00   0.00   82.9    26    6.8   207    14.5   875.6    0.00 
 206   19:10   0.00   82.4    27    7.2   214    13.2   875.7    0.00 
 206   19:20   0.00   82.8    26    6.2   191    12.9   875.7    0.00 
 206   19:30   0.00   82.9    25    4.4   190    10.8   875.8    0.00 
 206   19:40   0.00   82.5    25    6.2   189    12.3   876.0    0.00 
 206   19:50   0.00   82.1    25    3.9   190    12.9   876.1    0.00 
 206   20:00   0.00   82.1    24    5.2   212    11.4   876.2    0.00 
 206   20:10   0.00   82.0    24    5.2   204     9.9   876.3    0.00 
 206   20:20   0.00   82.0    24    6.8   212    11.1   876.4    0.00 
 206   20:30   0.00   81.7    24    7.4   197    17.2   876.5    0.00 
 206   20:40   0.00   81.5    24    7.6   214    14.2   876.6    0.00 
 206   20:50   0.00   81.1    24    7.4   215    16.1   876.6    0.00 
 206   21:00   0.00   80.7    25    6.4   225    12.3   876.7    0.00 
 206   21:10   0.00   80.7    26    7.0   215    15.0   876.8    0.00 
 206   21:20   0.00   80.5    25    6.0   197    15.3   876.8    0.00 
 206   21:30   0.00   80.3    26    8.6   218    17.5   876.8    0.00 
 206   21:40   0.00   80.0    26    8.8   216    15.6   876.8    0.00 
 206   21:50   0.00   79.8    27    8.8   205    15.9   876.8    0.00 
 206   22:00   0.00   79.8    28    8.4   211    15.1   876.8    0.00 
 206   22:10   0.00   79.5    28    7.6   213    13.7   876.8    0.00 
 206   22:20   0.00   79.2    28    6.2   205    11.3   876.8    0.00 
 206   22:30   0.00   79.4    28    6.9   205    11.9   876.7    0.00 
 206   22:40   0.00   79.3    27    6.8   201    13.2   876.6    0.00 
 206   22:50   0.00   79.0    28    7.1   194    11.0   876.6    0.00 
 206   23:00   0.00   78.6    28    6.5   195    10.7   876.6    0.00 
 206   23:10   0.00   78.2    28    7.7   210    12.3   876.6    0.00 
 206   23:20   0.00   78.0    28    8.7   210    14.2   876.6    0.00 
 206   23:30   0.00   77.7    28    8.1   204    13.7   876.7    0.00 
 206   23:40   0.00   77.3    28    7.3   198    12.2   876.8    0.00 
 206   23:50   0.00   77.2    28    9.0   209    12.8   876.9    0.00 
 207    0:00   0.00   77.0    28    8.0   206    11.9   876.9    0.00 
 207    0:10   0.00   76.7    28    8.1   204    13.6   877.0    0.00 
 207    0:20   0.00   76.5    28    8.3   201    12.5   877.0    0.00 
 207    0:30   0.00   76.3    28    7.5   199    12.6   877.0    0.00 
 207    0:40   0.00   76.2    28    8.4   206    11.7   877.0    0.00 
 207    0:50   0.00   76.1    28   10.7   210    14.5   876.9    0.00 
 207    1:00   0.00   76.0    28   10.9   212    15.5   876.8    0.00 
 207    1:10   0.00   75.7    28   10.3   211    17.5   876.8    0.00 
 207    1:20   0.00   75.4    28   10.5   211    13.5   876.7    0.00 
 207    1:30   0.00   75.3    29    8.0   209    13.4   876.7    0.00 
 207    1:40   0.00   75.2    29    8.4   212    12.6   876.7    0.00 
 207    1:50   0.00   75.1    28    7.3   212    10.4   876.7    0.00 
 207    2:00   0.00   74.8    28    6.9   212    10.2   876.7    0.00 
 207    2:10   0.00   74.9    28    8.7   208    11.5   876.7    0.00 
 207    2:20   0.00   74.9    28    6.8   213     9.4   876.7    0.00 
 207    2:30   0.00   74.6    28    5.0   222     9.1   876.7    0.00 
 207    2:40   0.00   74.6    28    6.2   217     9.4   876.7    0.00 
 207    2:50   0.00   74.7    28    5.0   212     7.7   876.8    0.00 
 207    3:00   0.00   74.6    28    4.6   210     6.9   876.8    0.00 
 207    3:10   0.00   74.9    28    5.6   210     8.0   876.8    0.00 
 207    3:20   0.00   75.2    28    4.3   208     7.3   876.8    0.00 
 207    3:30   0.00   74.6    29    3.0   197     5.2   876.7    0.00 
 207    3:40   0.00   74.4    29    4.5   210     6.7   876.6    0.00 
 207    3:50   0.00   74.0    29    2.5   258     4.6   876.5    0.00 
 207    4:00   0.00   72.0    31    2.8   319     4.0   876.5    0.00 
 207    4:10   0.00   70.6    33    2.1   304     3.3   876.5    0.00 
 207    4:20   0.00   69.6    34    1.3   315     2.4   876.5    0.00 
 207    4:30   0.00   68.9    35    0.8   303     2.0   876.5    0.00 
 207    4:40   0.00   68.9    36    0.4   298     1.4   876.5    0.00 
 207    4:50   0.00   68.7    36    0.6   308     1.5   876.6    0.00 
 207    5:00   0.00   68.4    36    0.3   224     1.7   876.7    0.00 
 207    5:10   0.01   68.5    36    1.0   172     2.3   876.8    0.00 
 207    5:20   0.01   71.3    33    5.1   194     7.8   876.9    0.00 
 207    5:30   0.03   75.8    28    6.3   211     9.4   877.1    0.00 
 207    5:40   0.07   76.4    27    6.4   213    10.4   877.4    0.00 
 207    5:50   0.11   77.6    26    7.3   211    10.1   877.6    0.00 
 207    6:00   0.14   77.8    26    7.9   211    14.0   877.8    0.00 
 207    6:10   0.20   77.8    25    6.9   211    11.3   877.9    0.00 
 207    6:20   0.23   79.1    24    5.8   210    11.4   878.1    0.00 
 207    6:30   0.21   77.8    25    6.8   212    11.8   878.1    0.00 
 207    6:40   0.22   77.5    26    8.3   209    12.9   878.1    0.00 
 207    6:50   0.33   78.1    25    9.0   205    14.2   878.2    0.00 
 207    7:00   0.36   78.7    24    9.1   208    13.3   878.3    0.00 

Return to Burns Pinion Ridge Reserve graphs page.


Western Regional Climate Center,wrcc@dri.edu